Time;durP1;ratioP1;P1;durP2;ratioP2;P2;SDS_P1;SDS_P2;PMS_P1;PMS_P2;Temp;Humidity;BMP_temperature;BMP_pressure;BME280_temperature;BME280_humidity;BME280_pressure;Samples;Min_cycle;Max_cycle;Signal;HPM_P1;HPM_P2
2022/12/12 04:00:31;;;;;;;;;;;10.70;50.90;;;;;;5954633;22;46568;-62
2022/12/12 04:02:59;;;;;;;;;;;10.70;50.80;;;;;;4922090;28;47259;-61
2022/12/12 04:06:25;;;;;;;;;;;10.70;50.90;;;;;;4982367;28;45410;-60
2022/12/12 04:08:27;;;;;;;;;;;10.60;50.90;;;;;;4973395;28;46278;-60
2022/12/12 04:13:43;;;;;;;;;;;10.70;50.90;;;;;;4962829;28;45546;-60
2022/12/12 04:16:13;;;;;;;;;;;10.60;50.90;;;;;;4964009;28;45405;-60
2022/12/12 04:18:50;;;;;;;;;;;10.60;51.50;;;;;;4950435;28;46308;-60
2022/12/12 04:24:14;;;;;;;;;;;10.70;50.90;;;;;;4964828;28;45979;-61
2022/12/12 04:26:41;;;;;;;;;;;10.60;50.90;;;;;;4963029;28;46220;-59
2022/12/12 04:29:19;;;;;;;;;;;10.60;50.90;;;;;;4965311;28;45573;-60
2022/12/12 04:31:56;;;;;;;;;;;10.60;50.90;;;;;;4963536;28;45550;-61
2022/12/12 04:34:25;;;;;;;;;;;10.70;50.90;;;;;;4978489;28;46200;-61
2022/12/12 04:36:50;;;;;;;;;;;10.60;50.90;;;;;;4963418;28;45515;-60
2022/12/12 04:39:16;;;;;;;;;;;10.60;50.90;;;;;;4989248;28;44714;-60
2022/12/12 04:41:41;;;;;;;;;;;10.60;50.90;;;;;;4968013;28;45564;-61
2022/12/12 04:44:07;;;;;;;;;;;10.60;50.90;;;;;;4984819;28;45690;-60
2022/12/12 04:46:32;;;;;;;;;;;10.60;50.80;;;;;;4964315;28;45037;-61
2022/12/12 04:48:59;;;;;;;;;;;10.60;50.80;;;;;;4988261;28;45513;-60
2022/12/12 04:51:30;;;;;;;;;;;10.60;50.90;;;;;;4972410;28;45311;-59
2022/12/12 04:53:58;;;;;;;;;;;10.60;50.90;;;;;;4970421;28;46000;-59
2022/12/12 04:56:25;;;;;;;;;;;10.60;50.90;;;;;;4967510;28;45268;-59
2022/12/12 04:58:51;;;;;;;;;;;10.60;50.90;;;;;;4972427;28;45180;-60
2022/12/12 05:01:35;;;;;;;;;;;10.60;50.90;;;;;;4982712;28;45641;-59
2022/12/12 05:04:02;;;;;;;;;;;10.60;50.90;;;;;;5027506;28;46747;-59
2022/12/12 05:06:32;;;;;;;;;;;10.60;50.90;;;;;;5028297;28;45347;-58
2022/12/12 05:08:57;;;;;;;;;;;10.60;50.90;;;;;;4991914;28;45598;-59
2022/12/12 05:11:23;;;;;;;;;;;10.60;50.90;;;;;;5007235;28;45420;-60
2022/12/12 05:13:49;;;;;;;;;;;10.60;50.90;;;;;;5010819;28;45371;-60
2022/12/12 05:16:22;;;;;;;;;;;10.60;51.00;;;;;;5034125;28;45169;-60
2022/12/12 05:18:47;;;;;;;;;;;10.60;51.00;;;;;;5002669;28;45484;-61
2022/12/12 05:21:13;;;;;;;;;;;10.60;50.90;;;;;;5022998;28;45393;-62
2022/12/12 05:23:38;;;;;;;;;;;10.60;50.90;;;;;;5029634;28;46520;-61
2022/12/12 05:26:23;;;;;;;;;;;10.60;50.90;;;;;;5021993;28;45498;-60
2022/12/12 05:28:48;;;;;;;;;;;10.60;51.00;;;;;;5021217;28;44933;-61
2022/12/12 05:31:14;;;;;;;;;;;10.50;50.90;;;;;;5024992;28;45679;-61
2022/12/12 05:33:39;;;;;;;;;;;10.60;51.00;;;;;;5005408;28;45984;-60
2022/12/12 05:36:05;;;;;;;;;;;10.60;50.90;;;;;;5023450;28;45272;-60
2022/12/12 05:38:30;;;;;;;;;;;10.60;50.90;;;;;;5006483;28;45303;-61
2022/12/12 05:40:56;;;;;;;;;;;10.60;50.90;;;;;;4999902;28;45113;-61
2022/12/12 05:43:21;;;;;;;;;;;10.60;50.90;;;;;;5016229;28;45665;-60
2022/12/12 05:45:47;;;;;;;;;;;10.50;50.90;;;;;;5020844;28;45320;-61
2022/12/12 05:48:12;;;;;;;;;;;10.60;50.90;;;;;;5025617;28;45179;-61
2022/12/12 05:50:38;;;;;;;;;;;10.60;50.90;;;;;;5010273;28;44968;-61
2022/12/12 05:53:03;;;;;;;;;;;10.50;50.90;;;;;;5019430;28;45457;-61
2022/12/12 05:55:29;;;;;;;;;;;10.50;50.90;;;;;;5025532;28;45663;-61
2022/12/12 05:57:54;;;;;;;;;;;10.50;50.90;;;;;;5023290;28;45573;-60
2022/12/12 06:00:20;;;;;;;;;;;10.50;50.90;;;;;;5030166;28;46109;-62
2022/12/12 06:02:45;;;;;;;;;;;10.50;50.90;;;;;;5030734;28;46403;-60
2022/12/12 06:05:11;;;;;;;;;;;10.50;50.90;;;;;;5033471;28;46765;-60
2022/12/12 06:07:36;;;;;;;;;;;10.50;50.90;;;;;;5025316;28;45624;-60
2022/12/12 06:10:02;;;;;;;;;;;10.50;50.90;;;;;;5024944;28;45666;-61
2022/12/12 06:12:27;;;;;;;;;;;10.60;50.90;;;;;;5020774;28;46070;-61
2022/12/12 06:14:53;;;;;;;;;;;10.50;50.90;;;;;;5031584;28;44945;-62
2022/12/12 06:17:18;;;;;;;;;;;10.50;50.90;;;;;;5027663;28;45022;-60
2022/12/12 06:19:43;;;;;;;;;;;10.50;50.90;;;;;;5031810;28;45386;-61
2022/12/12 06:22:09;;;;;;;;;;;10.50;50.90;;;;;;5009996;28;46185;-61
2022/12/12 06:24:35;;;;;;;;;;;10.50;51.00;;;;;;5018038;28;45245;-61
2022/12/12 06:27:00;;;;;;;;;;;10.50;50.90;;;;;;5005548;28;45538;-61
2022/12/12 06:29:25;;;;;;;;;;;10.50;50.90;;;;;;5018326;28;44780;-61
2022/12/12 06:31:51;;;;;;;;;;;10.50;51.00;;;;;;5025462;28;45695;-61
2022/12/12 06:34:16;;;;;;;;;;;10.50;51.00;;;;;;5022690;28;45202;-61
2022/12/12 06:36:42;;;;;;;;;;;10.50;50.90;;;;;;5030750;28;45470;-60
2022/12/12 06:39:08;;;;;;;;;;;10.50;51.00;;;;;;4999869;28;45393;-60
2022/12/12 06:41:34;;;;;;;;;;;10.50;51.00;;;;;;5020325;28;47005;-61
2022/12/12 06:43:59;;;;;;;;;;;10.50;51.00;;;;;;5022908;28;45604;-61
2022/12/12 06:46:25;;;;;;;;;;;10.50;51.00;;;;;;5016473;28;45529;-60
2022/12/12 06:48:51;;;;;;;;;;;10.50;51.00;;;;;;5024564;28;45559;-61
2022/12/12 06:51:17;;;;;;;;;;;10.50;51.00;;;;;;5025501;28;46182;-61
2022/12/12 06:53:43;;;;;;;;;;;10.50;51.00;;;;;;5012341;28;45263;-61
2022/12/12 06:56:09;;;;;;;;;;;10.50;51.00;;;;;;5012629;28;46254;-61
2022/12/12 06:58:35;;;;;;;2.65;1.58;;;10.50;51.00;;;;;;5020825;28;45298;-58
2022/12/12 07:01:00;;;;;;;2.88;1.85;;;10.50;50.90;;;;;;5016872;28;46449;-61
2022/12/12 07:03:26;;;;;;;2.63;1.92;;;10.60;50.80;;;;;;5010033;28;45331;-62
2022/12/12 07:05:51;;;;;;;2.92;2.10;;;10.70;50.60;;;;;;5035452;28;44921;-62
2022/12/12 07:08:17;;;;;;;2.70;2.10;;;10.80;50.60;;;;;;5021181;28;45188;-61
2022/12/12 07:10:43;;;;;;;3.40;2.20;;;10.90;50.40;;;;;;5029142;28;46875;-62
2022/12/12 07:13:09;;;;;;;1.92;1.67;;;11.10;50.20;;;;;;5028631;28;45176;-62
2022/12/12 07:15:43;;;;;;;2.55;1.80;;;11.30;49.90;;;;;;5018761;28;45236;-63
2022/12/12 07:18:09;;;;;;;2.92;2.10;;;11.50;49.70;;;;;;5011268;28;46160;-62
2022/12/12 07:20:41;;;;;;;1.75;1.63;;;11.60;49.40;;;;;;5016224;28;46014;-63
2022/12/12 07:23:06;;;;;;;2.22;1.70;;;11.80;49.30;;;;;;5028175;28;45445;-63
2022/12/12 07:25:32;;;;;;;3.08;2.05;;;12.00;49.20;;;;;;5026729;28;45139;-61
2022/12/12 07:27:57;;;;;;;2.10;1.73;;;12.10;49.00;;;;;;5027710;28;45526;-63
2022/12/12 07:30:23;;;;;;;1.90;1.45;;;12.20;48.90;;;;;;4997103;28;46293;-62
2022/12/12 07:32:50;;;;;;;2.17;1.80;;;12.20;48.80;;;;;;5032778;28;44952;-62
2022/12/12 07:35:16;;;;;;;1.92;1.50;;;12.20;48.90;;;;;;5021757;28;45553;-62
2022/12/12 07:37:41;;;;;;;2.63;1.95;;;12.30;49.00;;;;;;5025114;28;46054;-62
2022/12/12 07:40:07;;;;;;;5.10;1.77;;;12.40;48.90;;;;;;5006960;28;46051;-62
2022/12/12 07:42:33;;;;;;;2.42;1.80;;;12.50;48.80;;;;;;5012248;28;44984;-61
2022/12/12 07:44:58;;;;;;;2.05;1.63;;;12.70;48.60;;;;;;5021692;28;45342;-63
2022/12/12 07:47:24;;;;;;;3.05;2.05;;;12.80;48.50;;;;;;5022223;28;45612;-63
2022/12/12 07:49:49;;;;;;;3.28;1.75;;;13.00;48.40;;;;;;5006718;28;46971;-63
2022/12/12 07:52:15;;;;;;;2.03;1.58;;;13.20;48.20;;;;;;5020815;28;45451;-63
2022/12/12 07:54:40;;;;;;;2.75;1.50;;;13.30;48.10;;;;;;5030004;28;45551;-61
2022/12/12 07:57:06;;;;;;;2.15;1.80;;;13.40;47.80;;;;;;5027296;28;45437;-62
2022/12/12 07:59:31;;;;;;;1.88;1.42;;;13.50;47.70;;;;;;5027019;28;45590;-62
2022/12/12 08:01:57;;;;;;;2.58;1.58;;;13.70;47.60;;;;;;5025848;28;45769;-59
2022/12/12 08:04:22;;;;;;;2.58;1.70;;;13.80;47.50;;;;;;5034804;28;45374;-63
2022/12/12 08:06:48;;;;;;;2.22;1.92;;;13.80;47.40;;;;;;5022312;28;45320;-63
2022/12/12 08:09:13;;;;;;;6.22;1.52;;;13.90;47.30;;;;;;4999148;28;45055;-60
2022/12/12 08:11:39;;;;;;;2.30;1.88;;;13.90;47.30;;;;;;5026914;28;44752;-60
2022/12/12 08:14:08;;;;;;;3.30;1.52;;;13.90;47.50;;;;;;5030100;28;45939;-60
2022/12/12 08:16:33;;;;;;;3.67;1.83;;;14.00;47.40;;;;;;5012925;28;45565;-61
2022/12/12 08:18:59;;;;;;;1.60;1.38;;;14.10;47.30;;;;;;5032552;28;45507;-61
2022/12/12 08:21:25;;;;;;;2.50;1.80;;;14.20;47.10;;;;;;5004956;28;45184;-62
2022/12/12 08:23:50;;;;;;;2.15;1.30;;;14.40;46.90;;;;;;5005748;28;45506;-61
2022/12/12 08:26:16;;;;;;;2.42;1.60;;;14.50;46.80;;;;;;5031820;28;45244;-61
2022/12/12 08:28:43;;;;;;;1.80;1.42;;;14.70;46.60;;;;;;5024651;28;46064;-62
2022/12/12 08:31:11;;;;;;;2.38;1.80;;;14.80;46.60;;;;;;4993562;28;45361;-62
2022/12/12 08:33:37;;;;;;;3.30;1.50;;;14.90;46.40;;;;;;5022463;28;44736;-63
2022/12/12 08:36:19;;;;;;;2.15;1.70;;;15.00;46.30;;;;;;5021739;28;45188;-62
2022/12/12 08:38:45;;;;;;;4.32;1.65;;;15.10;46.00;;;;;;5023415;28;46097;-62
2022/12/12 08:41:11;;;;;;;1.88;1.60;;;15.20;46.00;;;;;;4998130;28;45434;-64
2022/12/12 08:43:37;;;;;;;2.05;1.50;;;15.30;46.00;;;;;;5005987;28;45495;-64
2022/12/12 08:46:03;;;;;;;3.97;1.75;;;15.40;46.00;;;;;;5016082;28;45248;-64
2022/12/12 08:48:29;;;;;;;2.78;1.52;;;15.40;45.80;;;;;;5022518;28;47050;-62
2022/12/12 08:50:55;;;;;;;8.63;1.80;;;15.40;45.70;;;;;;5008185;28;45235;-63
2022/12/12 08:53:21;;;;;;;2.67;1.63;;;15.40;45.70;;;;;;5003505;28;44865;-63
2022/12/12 08:55:47;;;;;;;2.38;1.73;;;15.40;45.80;;;;;;4988622;28;45039;-61
2022/12/12 08:58:12;;;;;;;1.73;1.17;;;15.50;45.90;;;;;;5022437;28;45339;-62
2022/12/12 09:00:39;;;;;;;2.03;1.70;;;15.50;45.80;;;;;;5007291;28;44883;-62
2022/12/12 09:03:04;;;;;;;2.13;1.77;;;15.70;45.70;;;;;;5030499;28;45552;-62
2022/12/12 09:05:30;;;;;;;2.65;1.75;;;15.80;45.50;;;;;;5005116;28;44918;-62
2022/12/12 09:07:55;;;;;;;3.28;1.40;;;15.90;45.30;;;;;;5036737;28;45830;-62
2022/12/12 09:10:21;;;;;;;1.75;1.40;;;16.10;45.20;;;;;;4992345;28;45343;-63
2022/12/12 09:12:46;;;;;;;4.28;1.77;;;16.20;45.00;;;;;;5024233;28;45560;-62
2022/12/12 09:15:13;;;;;;;2.40;1.40;;;16.30;44.90;;;;;;4997821;28;45826;-63
2022/12/12 09:17:38;;;;;;;1.63;1.42;;;16.40;44.90;;;;;;5005458;28;45228;-62
2022/12/12 09:20:04;;;;;;;2.70;1.60;;;16.50;44.80;;;;;;5023422;28;44991;-63
2022/12/12 09:22:30;;;;;;;1.73;1.40;;;16.60;44.70;;;;;;5014296;28;45667;-63
2022/12/12 09:24:55;;;;;;;2.05;1.58;;;16.60;44.60;;;;;;5029750;28;45487;-63
2022/12/12 09:27:21;;;;;;;1.98;1.50;;;16.70;44.60;;;;;;5011956;28;45469;-63
2022/12/12 09:29:46;;;;;;;3.55;1.30;;;16.80;44.50;;;;;;5013177;28;45195;-63
2022/12/12 09:32:12;;;;;;;2.47;1.25;;;16.80;44.60;;;;;;5027437;28;45293;-64
2022/12/12 09:34:37;;;;;;;1.67;1.30;;;16.70;44.30;;;;;;5020645;28;45438;-64
2022/12/12 09:37:03;;;;;;;1.55;1.45;;;16.70;44.60;;;;;;5013350;28;46863;-63
2022/12/12 09:39:29;;;;;;;1.73;1.42;;;16.70;44.70;;;;;;5010034;28;44713;-62
2022/12/12 09:41:55;;;;;;;1.95;1.60;;;16.80;44.70;;;;;;5028408;28;45579;-63
2022/12/12 09:44:21;;;;;;;2.00;1.58;;;16.90;44.60;;;;;;4985237;28;45436;-63
2022/12/12 09:46:56;;;;;;;3.33;1.70;;;17.00;44.40;;;;;;5004159;28;46038;-62
2022/12/12 09:49:42;;;;;;;2.08;1.50;;;17.10;44.20;;;;;;5007507;28;45720;-63
2022/12/12 09:52:10;;;;;;;1.52;1.10;;;17.20;43.80;;;;;;4979349;28;45918;-62
2022/12/12 09:54:36;;;;;;;1.67;1.40;;;17.30;44.10;;;;;;4994664;28;45419;-63
2022/12/12 09:57:18;;;;;;;1.85;1.40;;;17.40;44.00;;;;;;5006148;28;46106;-61
2022/12/12 09:59:55;;;;;;;1.65;1.42;;;17.50;43.50;;;;;;5007451;28;44696;-62
2022/12/12 10:02:44;;;;;;;1.95;1.40;;;17.60;43.70;;;;;;5011080;28;45267;-63
2022/12/12 10:05:44;;;;;;;1.90;1.52;;;17.70;43.40;;;;;;5008652;28;45478;-62
2022/12/12 10:08:25;;;;;;;2.22;1.48;;;17.70;43.20;;;;;;5005885;28;45523;-63
2022/12/12 10:10:53;;;;;;;1.92;1.30;;;17.80;43.40;;;;;;5022031;28;44948;-63
2022/12/12 10:13:26;;;;;;;1.80;1.50;;;17.80;43.60;;;;;;5006901;28;45247;-63
2022/12/12 10:16:08;;;;;;;2.42;1.42;;;17.80;43.30;;;;;;5002781;28;45062;-63
2022/12/12 10:18:46;;;;;;;2.35;1.60;;;17.70;43.70;;;;;;4997006;28;47260;-64
2022/12/12 10:21:23;;;;;;;3.42;1.75;;;17.70;43.50;;;;;;4987637;28;45630;-62
2022/12/12 10:23:50;;;;;;;2.03;1.58;;;17.80;43.60;;;;;;5014219;28;44694;-62
2022/12/12 10:26:17;;;;;;;2.50;1.58;;;17.80;43.60;;;;;;5027668;28;45180;-63
2022/12/12 10:28:43;;;;;;;1.45;1.20;;;17.90;43.60;;;;;;4989508;28;45068;-62
2022/12/12 10:31:22;;;;;;;1.65;1.20;;;18.00;43.40;;;;;;4996484;28;45403;-63
2022/12/12 10:34:07;;;;;;;2.13;1.60;;;18.10;43.20;;;;;;5002486;28;44930;-62
2022/12/12 10:36:39;;;;;;;2.95;1.40;;;18.20;42.90;;;;;;5018794;28;45514;-62
2022/12/12 10:39:14;;;;;;;2.40;1.55;;;18.30;42.90;;;;;;5009932;28;45932;-63
2022/12/12 10:41:50;;;;;;;2.15;1.48;;;18.40;42.90;;;;;;5002340;28;45143;-62
2022/12/12 10:44:34;;;;;;;4.68;1.65;;;18.50;42.80;;;;;;5021183;28;45267;-65
2022/12/12 10:47:04;;;;;;;1.45;1.30;;;18.60;42.40;;;;;;5029911;28;45806;-63
2022/12/12 10:49:29;;;;;;;1.48;1.33;;;18.70;42.70;;;;;;5003010;28;45955;-61
2022/12/12 10:51:55;;;;;;;3.10;1.50;;;18.70;42.70;;;;;;5002993;28;45562;-63
2022/12/12 10:54:22;;;;;;;1.70;1.02;;;18.80;42.70;;;;;;4985965;28;45184;-63
2022/12/12 10:57:13;;;;;;;2.33;1.63;;;18.80;42.60;;;;;;5014384;28;45377;-61
2022/12/12 10:59:41;;;;;;;2.97;1.38;;;18.90;42.10;;;;;;4999838;28;45203;-61
2022/12/12 11:02:36;;;;;;;1.95;1.45;;;18.90;42.40;;;;;;5007136;28;45999;-61
2022/12/12 11:05:22;;;;;;;1.67;1.40;;;18.90;42.70;;;;;;5018736;28;45452;-63
2022/12/12 11:07:57;;;;;;;3.45;1.50;;;18.80;42.00;;;;;;5025606;28;45013;-62
2022/12/12 11:10:28;;;;;;;2.30;1.55;;;18.80;42.60;;;;;;5009238;28;45952;-63
2022/12/12 11:12:55;;;;;;;4.68;1.55;;;18.90;42.60;;;;;;5012334;28;45677;-63
2022/12/12 11:15:21;;;;;;;2.63;1.40;;;19.00;42.50;;;;;;5020490;28;45308;-63
2022/12/12 11:17:47;;;;;;;3.65;1.40;;;19.00;42.40;;;;;;5001050;28;44807;-63
2022/12/12 11:20:16;;;;;;;1.77;1.45;;;19.10;42.30;;;;;;4994491;28;47124;-63
2022/12/12 11:22:42;;;;;;;1.75;1.40;;;19.10;42.10;;;;;;5016221;28;46759;-64
2022/12/12 11:25:22;;;;;;;1.77;1.17;;;19.20;42.20;;;;;;5016546;28;45338;-63
2022/12/12 11:27:48;;;;;;;1.33;1.23;;;19.30;41.80;;;;;;5005102;28;45321;-63
2022/12/12 11:30:29;;;;;;;2.78;1.52;;;19.30;42.10;;;;;;5036221;28;45971;-63
2022/12/12 11:32:54;;;;;;;2.95;1.25;;;19.40;41.60;;;;;;5005720;28;45226;-62
2022/12/12 11:35:38;;;;;;;1.95;1.60;;;19.40;41.90;;;;;;4991821;28;45237;-64
2022/12/12 11:38:14;;;;;;;3.10;1.40;;;19.50;41.70;;;;;;4999203;28;45269;-63
2022/12/12 11:40:39;;;;;;;1.40;1.30;;;19.50;41.60;;;;;;5012119;28;44991;-63
2022/12/12 11:43:21;;;;;;;1.73;1.30;;;19.50;41.70;;;;;;5008545;28;45411;-63
2022/12/12 11:46:06;;;;;;;2.03;1.20;;;19.60;41.30;;;;;;4997138;28;45302;-63
2022/12/12 11:48:50;;;;;;;1.70;1.27;;;19.60;41.80;;;;;;4995449;28;45292;-63
2022/12/12 11:51:42;;;;;;;2.60;1.25;;;19.70;41.20;;;;;;5027454;28;47017;-63
2022/12/12 11:54:29;;;;;;;1.42;1.30;;;19.70;41.00;;;;;;5026441;28;45199;-61
2022/12/12 11:57:43;;;;;;;1.73;1.30;;;19.70;41.00;;;;;;4993344;28;45705;-62
2022/12/12 12:00:10;;;;;;;1.52;1.25;;;19.60;41.20;;;;;;4997768;28;45024;-62
2022/12/12 12:03:03;;;;;;;1.30;1.20;;;19.50;41.90;;;;;;5012682;28;45482;-62
2022/12/12 12:05:39;;;;;;;3.15;1.23;;;19.50;41.60;;;;;;5010848;28;44698;-60
2022/12/12 12:08:59;;;;;;;2.40;1.30;;;19.50;41.80;;;;;;4992930;28;45339;-61
2022/12/12 12:11:36;;;;;;;1.90;1.50;;;19.60;41.50;;;;;;4974244;28;45175;-63
2022/12/12 12:14:31;;;;;;;1.70;1.33;;;19.70;41.60;;;;;;4975948;28;46070;-60
2022/12/12 12:16:59;;;;;;;1.52;1.30;;;19.70;41.30;;;;;;4978693;28;45775;-63
2022/12/12 12:19:43;;;;;;;1.20;1.10;;;19.80;41.70;;;;;;5020031;28;45264;-59
2022/12/12 12:22:08;;;;;;;;;;;19.90;41.60;;;;;;5012786;28;45476;-62
2022/12/12 12:24:56;;;;;;;2.33;1.40;;;20.00;40.90;;;;;;5009807;28;45920;-61
2022/12/12 12:27:30;;;;;;;1.50;1.17;;;20.00;41.10;;;;;;4994103;28;45180;-62
2022/12/12 12:30:12;;;;;;;1.45;1.35;;;20.10;41.30;;;;;;4976062;28;44856;-63
2022/12/12 12:32:51;;;;;;;3.15;1.70;;;20.20;41.00;;;;;;5006947;28;45260;-63
2022/12/12 12:35:30;;;;;;;3.58;1.35;;;20.20;41.00;;;;;;4992717;28;45853;-62
2022/12/12 12:38:18;;;;;;;1.73;1.40;;;20.30;41.20;;;;;;5006995;28;45464;-61
2022/12/12 12:40:56;;;;;;;1.63;1.17;;;20.30;41.10;;;;;;4985087;28;45238;-62
2022/12/12 12:43:40;;;;;;;3.08;1.20;;;20.40;41.00;;;;;;5001796;28;45319;-63
2022/12/12 12:46:28;;;;;;;1.92;1.42;;;20.40;41.10;;;;;;4992844;28;46343;-62
2022/12/12 12:48:57;;;;;;;1.63;1.30;;;20.40;41.00;;;;;;5002147;28;44888;-62
2022/12/12 12:51:28;;;;;;;2.20;1.40;;;20.30;41.20;;;;;;4998692;28;45166;-61
2022/12/12 12:54:11;;;;;;;1.58;1.20;;;20.30;41.30;;;;;;4995552;28;45364;-62
2022/12/12 12:56:43;;;;;;;2.47;1.27;;;20.30;41.10;;;;;;5012129;28;45921;-61
2022/12/12 12:59:13;;;;;;;1.38;1.27;;;20.30;41.10;;;;;;4990482;28;45237;-61
2022/12/12 13:01:47;;;;;;;1.58;1.02;;;20.40;41.20;;;;;;5006281;28;45523;-61
2022/12/12 13:04:21;;;;;;;2.22;1.45;;;20.50;41.00;;;;;;4998876;28;45277;-60
2022/12/12 13:07:07;;;;;;;1.33;1.10;;;20.50;40.90;;;;;;4981881;28;45927;-61
2022/12/12 13:09:39;;;;;;;2.00;1.27;;;20.70;40.90;;;;;;4994201;28;45303;-59
2022/12/12 13:12:12;;;;;;;1.98;1.55;;;20.70;40.90;;;;;;4989340;28;44898;-61
2022/12/12 13:14:52;;;;;;;1.35;1.25;;;20.70;40.80;;;;;;5007650;28;45244;-61
2022/12/12 13:17:21;;;;;;;1.60;1.42;;;20.80;40.60;;;;;;4987393;28;45579;-59
2022/12/12 13:19:48;;;;;;;1.45;1.35;;;20.80;41.50;;;;;;4990517;28;45270;-60
2022/12/12 13:22:18;;;;;;;1.88;1.40;;;20.90;40.90;;;;;;4995949;28;45387;-62
2022/12/12 13:25:13;;;;;;;2.00;1.38;;;20.90;40.70;;;;;;4985773;28;45460;-61
2022/12/12 13:27:44;;;;;;;2.30;1.40;;;20.90;40.20;;;;;;5007431;28;45063;-62
2022/12/12 13:30:19;;;;;;;1.42;1.30;;;21.00;40.80;;;;;;4973261;28;45115;-62
2022/12/12 13:33:03;;;;;;;1.67;1.50;;;21.00;40.50;;;;;;4988564;28;45184;-62
2022/12/12 13:35:33;;;;;;;3.83;1.20;;;21.10;40.30;;;;;;5012038;28;45245;-63
2022/12/12 13:37:59;;;;;;;1.58;1.20;;;21.10;40.70;;;;;;5004239;28;46000;-62
2022/12/12 13:40:38;;;;;;;1.20;1.10;;;21.20;40.70;;;;;;5015112;28;45164;-60
2022/12/12 13:43:05;;;;;;;4.55;1.30;;;21.20;40.30;;;;;;4992712;28;45790;-60
2022/12/12 13:45:30;;;;;;;1.65;1.00;;;21.30;40.50;;;;;;4994523;28;45141;-62
2022/12/12 13:47:58;;;;;;;1.30;1.00;;;21.30;40.50;;;;;;5000832;28;46160;-60
2022/12/12 13:50:23;;;;;;;1.45;1.20;;;21.40;40.50;;;;;;4965610;28;45515;-61
2022/12/12 13:53:07;;;;;;;1.58;1.20;;;21.40;40.50;;;;;;4992950;28;45630;-61
2022/12/12 13:55:33;;;;;;;1.60;1.17;;;21.40;40.00;;;;;;4987810;28;44820;-62
2022/12/12 13:58:04;;;;;;;6.38;1.25;;;21.50;40.40;;;;;;5009188;28;46748;-60
2022/12/12 14:00:34;;;;;;;1.02;0.93;;;21.50;40.40;;;;;;5007665;28;45212;-61
2022/12/12 14:03:10;;;;;;;1.30;1.10;;;21.60;40.30;;;;;;4969804;28;45198;-61
2022/12/12 14:05:53;;;;;;;1.58;0.88;;;21.60;40.20;;;;;;5012082;28;44734;-62
2022/12/12 14:08:21;;;;;;;1.23;1.10;;;21.60;39.80;;;;;;4989883;28;46185;-61
2022/12/12 14:10:47;;;;;;;4.75;1.23;;;21.70;40.20;;;;;;5000770;28;45165;-61
2022/12/12 14:13:18;;;;;;;1.13;1.02;;;21.70;40.20;;;;;;5010595;28;45568;-61
2022/12/12 14:15:44;;;;;;;1.52;1.27;;;21.80;40.00;;;;;;5011430;28;45451;-60
2022/12/12 14:18:18;;;;;;;1.30;1.10;;;21.80;40.10;;;;;;4995319;28;46035;-62
2022/12/12 14:20:43;;;;;;;1.20;1.00;;;21.80;39.80;;;;;;4979107;28;44757;-63
2022/12/12 14:23:12;;;;;;;1.90;1.20;;;21.90;40.10;;;;;;4987739;28;45281;-61
2022/12/12 14:25:38;;;;;;;1.30;1.02;;;21.90;39.90;;;;;;5014238;28;45206;-61
2022/12/12 14:28:23;;;;;;;1.35;1.20;;;22.00;40.00;;;;;;5012703;28;45541;-61
2022/12/12 14:31:09;;;;;;;1.70;1.20;;;22.00;39.60;;;;;;4991646;28;45522;-61
2022/12/12 14:34:19;;;;;;;1.38;0.93;;;22.10;39.80;;;;;;4993042;28;45319;-61
2022/12/12 14:37:03;;;;;;;1.63;1.30;;;22.10;39.80;;;;;;4948114;28;45298;-61
2022/12/12 14:39:32;;;;;;;0.80;0.80;;;22.10;39.40;;;;;;4953586;28;45730;-61
2022/12/12 14:41:57;;;;;;;1.33;1.17;;;22.20;39.80;;;;;;4994090;28;45292;-62
2022/12/12 14:44:27;;;;;;;1.02;0.93;;;22.30;39.90;;;;;;4999658;28;45276;-62
2022/12/12 14:46:52;;;;;;;1.17;0.85;;;22.20;39.70;;;;;;5012757;28;45273;-60
2022/12/12 14:49:18;;;;;;;1.38;1.27;;;22.30;39.80;;;;;;4978427;28;47132;-60
2022/12/12 14:51:45;;;;;;;1.00;0.90;;;22.30;39.80;;;;;;5008501;28;44650;-62
2022/12/12 14:54:16;;;;;;;2.15;1.20;;;22.30;39.70;;;;;;4969608;28;45071;-60
2022/12/12 14:56:46;;;;;;;2.13;1.00;;;22.40;39.60;;;;;;4974978;28;45489;-60
2022/12/12 14:59:24;;;;;;;1.20;1.02;;;22.40;39.60;;;;;;4994767;28;46242;-62
2022/12/12 15:01:53;;;;;;;1.17;0.90;;;22.50;39.40;;;;;;5016901;28;46731;-62
2022/12/12 15:04:22;;;;;;;1.27;1.02;;;22.50;39.60;;;;;;5014890;28;45307;-60
2022/12/12 15:06:57;;;;;;;2.40;1.30;;;22.50;39.50;;;;;;5014840;28;45512;-60
2022/12/12 15:09:39;;;;;;;1.30;1.00;;;22.60;39.40;;;;;;5025125;28;45394;-61
2022/12/12 15:12:14;;;;;;;1.30;1.13;;;22.60;39.40;;;;;;5009976;28;45213;-62
2022/12/12 15:14:46;;;;;;;1.50;1.13;;;22.60;39.40;;;;;;5013754;28;45150;-63
2022/12/12 15:17:22;;;;;;;0.90;0.80;;;22.60;39.30;;;;;;5031005;28;45599;-60
2022/12/12 15:19:52;;;;;;;1.17;0.95;;;22.60;39.50;;;;;;4993646;28;45003;-61
2022/12/12 15:22:21;;;;;;;1.30;1.20;;;22.70;39.40;;;;;;5015864;28;44930;-62
2022/12/12 15:24:46;;;;;;;1.70;1.30;;;22.70;39.50;;;;;;5024708;28;45569;-60
2022/12/12 15:27:21;;;;;;;1.00;0.90;;;22.70;39.40;;;;;;5007437;28;44617;-64
2022/12/12 15:29:47;;;;;;;1.30;1.15;;;22.80;39.30;;;;;;5017573;28;45246;-61
2022/12/12 15:32:16;;;;;;;1.42;1.27;;;22.80;39.40;;;;;;5032967;28;45037;-61
2022/12/12 15:34:44;;;;;;;1.17;1.08;;;22.80;39.30;;;;;;5011929;28;45291;-61
2022/12/12 15:37:20;;;;;;;1.25;1.15;;;22.80;39.40;;;;;;4987079;28;45213;-62
2022/12/12 15:40:10;;;;;;;1.10;1.00;;;22.80;39.10;;;;;;5020339;28;46465;-61
2022/12/12 15:42:43;;;;;;;1.20;1.10;;;22.90;39.00;;;;;;5009018;28;45701;-62
2022/12/12 15:45:19;;;;;;;;;;;22.90;39.30;;;;;;4994371;28;45408;-62
2022/12/12 15:47:45;;;;;;;1.05;0.95;;;22.90;38.70;;;;;;5027103;28;45266;-61
2022/12/12 15:50:19;;;;;;;1.52;1.23;;;22.90;39.30;;;;;;5008330;28;45237;-61
2022/12/12 15:52:46;;;;;;;1.25;1.15;;;23.00;39.10;;;;;;5015614;28;45000;-62
2022/12/12 15:55:19;;;;;;;1.48;1.10;;;23.00;39.30;;;;;;4989832;28;45225;-62
2022/12/12 15:57:46;;;;;;;1.40;1.20;;;22.90;39.10;;;;;;5032381;28;45248;-63
2022/12/12 16:00:29;;;;;;;2.72;1.00;;;22.80;39.40;;;;;;5016437;28;46174;-63
2022/12/12 16:03:15;;;;;;;1.40;1.20;;;22.70;39.30;;;;;;5003840;28;45275;-62
2022/12/12 16:05:41;;;;;;;1.55;1.20;;;22.70;39.40;;;;;;5031966;28;45578;-62
2022/12/12 16:08:29;;;;;;;1.20;1.05;;;22.80;39.60;;;;;;5008444;28;45255;-62
2022/12/12 16:10:57;;;;;;;1.05;0.95;;;22.80;39.10;;;;;;5031713;28;46049;-63
2022/12/12 16:13:35;;;;;;;1.23;1.13;;;22.80;39.50;;;;;;5019162;28;45273;-61
2022/12/12 16:16:01;;;;;;;1.00;0.90;;;22.90;39.40;;;;;;5021290;28;45646;-62
2022/12/12 16:18:27;;;;;;;1.20;1.10;;;22.90;39.40;;;;;;5010861;28;45200;-64
2022/12/12 16:20:54;;;;;;;1.20;1.10;;;22.90;39.30;;;;;;5009111;28;47085;-63
2022/12/12 16:23:26;;;;;;;1.30;1.20;;;23.00;39.30;;;;;;5010850;28;44537;-62
2022/12/12 16:25:52;;;;;;;2.20;1.50;;;23.00;39.30;;;;;;5026921;28;44981;-62
2022/12/12 16:28:25;;;;;;;1.25;0.80;;;23.00;39.30;;;;;;5031194;28;44735;-64
2022/12/12 16:30:57;;;;;;;1.20;1.10;;;23.00;39.10;;;;;;4995924;28;45860;-64
2022/12/12 16:33:29;;;;;;;1.43;1.20;;;23.10;39.20;;;;;;5021571;28;44696;-63
2022/12/12 16:35:55;;;;;;;1.25;1.08;;;23.10;39.10;;;;;;4996137;28;45420;-64
2022/12/12 16:38:20;;;;;;;1.15;1.05;;;23.10;39.20;;;;;;5014437;28;45443;-61
2022/12/12 16:40:47;;;;;;;2.47;1.20;;;23.10;39.10;;;;;;5032555;28;46028;-62
2022/12/12 16:43:13;;;;;;;1.05;0.80;;;23.20;39.10;;;;;;5012943;28;44822;-61
2022/12/12 16:45:39;;;;;;;1.58;1.20;;;23.20;39.10;;;;;;5004331;28;44737;-59
2022/12/12 16:48:21;;;;;;;1.40;1.10;;;23.20;39.10;;;;;;5029884;28;45734;-62
2022/12/12 16:50:51;;;;;;;1.88;1.27;;;23.10;38.70;;;;;;5024490;28;46377;-62
2022/12/12 16:53:17;;;;;;;1.13;1.00;;;23.00;39.10;;;;;;5013781;28;45285;-61
2022/12/12 16:55:45;;;;;;;1.98;1.50;;;23.00;39.30;;;;;;5007371;28;44938;-62
2022/12/12 16:58:11;;;;;;;1.10;1.00;;;23.00;39.40;;;;;;5028928;28;45367;-63
2022/12/12 17:00:37;;;;;;;3.35;1.27;;;23.00;39.40;;;;;;5020184;28;46193;-63
2022/12/12 17:03:03;;;;;;;1.25;1.15;;;23.00;39.30;;;;;;4988508;28;44770;-63
2022/12/12 17:05:29;;;;;;;2.05;1.20;;;23.00;39.30;;;;;;4995905;28;45553;-62
2022/12/12 17:07:55;;;;;;;1.95;1.30;;;23.00;39.20;;;;;;5027153;28;45565;-60
2022/12/12 17:10:23;;;;;;;1.27;1.17;;;22.80;39.30;;;;;;5030489;28;45288;-61
2022/12/12 17:12:49;;;;;;;2.33;1.40;;;22.70;39.60;;;;;;4994074;28;45192;-63
2022/12/12 17:15:19;;;;;;;1.65;1.10;;;22.60;39.60;;;;;;5023330;28;45185;-62
2022/12/12 17:17:45;;;;;;;1.25;1.15;;;22.40;39.80;;;;;;4988519;28;44737;-61
2022/12/12 17:20:11;;;;;;;1.30;1.20;;;22.20;40.00;;;;;;5025927;28;45302;-60
2022/12/12 17:22:37;;;;;;;1.25;1.08;;;22.10;40.20;;;;;;5011029;28;45351;-61
2022/12/12 17:25:02;;;;;;;1.83;1.15;;;22.00;40.40;;;;;;5028033;28;44859;-62
2022/12/12 17:27:28;;;;;;;1.23;1.13;;;21.80;40.60;;;;;;4998065;28;45172;-62
2022/12/12 17:29:53;;;;;;;1.40;1.05;;;21.70;40.70;;;;;;5025228;28;45533;-61